createdAt,value
2023-01-20T00:01:48.120Z,54.50
2023-01-20T00:04:22.874Z,54.70
2023-01-20T00:06:56.249Z,54.60
2023-01-20T00:09:29.562Z,54.60
2023-01-20T00:12:02.880Z,54.60
2023-01-20T00:14:36.434Z,54.50
2023-01-20T00:17:09.732Z,54.60
2023-01-20T00:19:44.395Z,54.60
2023-01-20T00:22:17.715Z,54.50
2023-01-20T00:24:51.031Z,54.60
2023-01-20T00:27:24.363Z,54.40
2023-01-20T00:29:57.694Z,54.40
2023-01-20T00:32:30.990Z,54.50
2023-01-20T00:35:06.469Z,54.30
2023-01-20T00:37:40.220Z,54.40
2023-01-20T00:40:13.886Z,54.40
2023-01-20T00:42:47.077Z,54.40
2023-01-20T00:45:20.434Z,54.50
2023-01-20T00:47:53.748Z,54.50
2023-01-20T00:50:28.441Z,54.40
2023-01-20T00:53:01.717Z,54.50
2023-01-20T00:55:35.093Z,54.40
2023-01-20T00:58:08.437Z,54.30
2023-01-20T01:00:41.883Z,54.40
2023-01-20T01:03:15.403Z,54.30
2023-01-20T01:05:50.140Z,54.30
2023-01-20T01:08:23.449Z,54.20
2023-01-20T01:10:57.254Z,54.20
2023-01-20T01:13:30.363Z,54.30
2023-01-20T01:16:03.744Z,54.40
2023-01-20T01:18:37.242Z,54.50
2023-01-20T01:21:13.703Z,54.50
2023-01-20T01:23:47.215Z,54.40
2023-01-20T01:26:20.639Z,54.40
2023-01-20T01:28:53.939Z,54.20
2023-01-20T01:31:27.439Z,54.40
2023-01-20T01:34:00.881Z,54.20
2023-01-20T01:36:35.604Z,54.20
2023-01-20T01:39:08.915Z,54.00
2023-01-20T01:41:42.212Z,53.80
2023-01-20T01:44:16.482Z,53.60
2023-01-20T01:46:49.884Z,53.50
2023-01-20T01:49:29.194Z,53.40
2023-01-20T01:52:06.739Z,53.30
2023-01-20T01:54:42.837Z,53.20
2023-01-20T01:57:16.327Z,53.10
2023-01-20T01:59:49.653Z,53.10
2023-01-20T02:02:24.081Z,53.10
2023-01-20T02:04:57.578Z,53.00
2023-01-20T02:07:34.630Z,53.30
2023-01-20T02:10:08.733Z,53.70
2023-01-20T02:12:43.524Z,53.70
2023-01-20T02:15:22.889Z,53.90
2023-01-20T02:18:14.459Z,54.00
2023-01-20T02:21:19.576Z,54.20
2023-01-20T02:24:29.007Z,54.30
2023-01-20T02:27:11.151Z,54.20
2023-01-20T02:30:18.428Z,54.40
2023-01-20T02:32:57.456Z,54.20
2023-01-20T02:35:36.644Z,54.40
2023-01-20T02:38:17.211Z,54.30
2023-01-20T02:40:57.342Z,54.40
2023-01-20T02:43:37.883Z,54.30
2023-01-20T02:46:15.658Z,54.30
2023-01-20T02:48:55.961Z,54.30
2023-01-20T02:51:32.978Z,54.90
2023-01-20T02:54:10.171Z,54.30
2023-01-20T02:56:44.202Z,54.30
2023-01-20T02:59:21.960Z,54.40
2023-01-20T03:01:58.998Z,54.50
2023-01-20T03:04:37.691Z,54.50
2023-01-20T03:07:13.820Z,54.50
2023-01-20T03:09:52.193Z,54.50
2023-01-20T03:12:30.682Z,54.50
2023-01-20T03:15:04.641Z,54.40
2023-01-20T03:17:38.153Z,54.30
2023-01-20T03:20:13.841Z,54.40
2023-01-20T03:22:47.233Z,54.30
2023-01-20T03:25:21.618Z,54.30
2023-01-20T03:27:54.918Z,54.20
2023-01-20T03:30:28.292Z,54.30
2023-01-20T03:33:02.958Z,54.30
2023-01-20T03:35:39.096Z,54.20
2023-01-20T03:38:12.682Z,54.40
2023-01-20T03:40:54.429Z,54.30
2023-01-20T03:43:33.334Z,54.50
2023-01-20T03:46:12.899Z,54.40
2023-01-20T03:48:52.054Z,54.40
2023-01-20T03:51:34.950Z,54.40
2023-01-20T03:54:12.303Z,54.40
2023-01-20T03:56:52.384Z,54.40
2023-01-20T03:59:26.743Z,54.40
2023-01-20T04:02:03.532Z,54.40
2023-01-20T04:04:39.733Z,54.40
2023-01-20T04:07:21.551Z,54.40
2023-01-20T04:09:59.905Z,54.50
2023-01-20T04:12:33.414Z,54.40
2023-01-20T04:15:09.016Z,54.40
2023-01-20T04:17:42.533Z,54.40
2023-01-20T04:20:17.353Z,54.40
2023-01-20T04:22:56.953Z,54.40
2023-01-20T04:25:31.996Z,54.50
2023-01-20T04:28:05.288Z,54.60
2023-01-20T04:30:38.613Z,54.60
2023-01-20T04:33:11.919Z,54.60
2023-01-20T04:35:45.226Z,54.60
2023-01-20T04:38:19.923Z,54.60
2023-01-20T04:40:53.443Z,54.60
2023-01-20T04:43:26.732Z,54.60
2023-01-20T04:46:00.057Z,54.60
2023-01-20T04:48:33.374Z,54.60
2023-01-20T04:51:07.529Z,54.60
2023-01-20T04:53:42.327Z,54.60
2023-01-20T04:56:16.846Z,54.50
2023-01-20T04:58:50.154Z,54.60
2023-01-20T05:01:23.581Z,54.60
2023-01-20T05:03:56.979Z,54.70
2023-01-20T05:06:30.364Z,54.60
2023-01-20T05:09:05.262Z,54.60
2023-01-20T05:11:38.582Z,54.60
2023-01-20T05:14:12.360Z,54.70
2023-01-20T05:16:47.137Z,54.70
2023-01-20T05:19:22.867Z,54.70
2023-01-20T05:21:56.164Z,54.70
2023-01-20T05:24:31.426Z,54.70
2023-01-20T05:27:04.975Z,54.70
2023-01-20T05:29:38.279Z,54.70
2023-01-20T05:32:11.844Z,54.70
2023-01-20T05:34:45.138Z,54.70
2023-01-20T05:37:18.748Z,54.70
2023-01-20T05:39:53.399Z,54.70
2023-01-20T05:42:26.748Z,54.70
2023-01-20T05:45:00.117Z,54.70
2023-01-20T05:47:33.429Z,54.70
2023-01-20T05:50:07.314Z,54.60
2023-01-20T05:52:40.675Z,54.50
2023-01-20T05:55:15.655Z,54.70
2023-01-20T05:57:49.333Z,54.70
2023-01-20T06:00:23.429Z,54.70
2023-01-20T06:02:56.785Z,54.70
2023-01-20T06:05:30.392Z,54.60
2023-01-20T06:08:03.851Z,54.70
2023-01-20T06:10:38.555Z,54.60
2023-01-20T06:13:11.835Z,54.90
2023-01-20T06:15:45.139Z,54.90
2023-01-20T06:18:18.470Z,54.70
2023-01-20T06:20:52.311Z,54.70
2023-01-20T06:23:26.321Z,54.60
2023-01-20T06:26:02.620Z,54.60
2023-01-20T06:28:36.418Z,54.40
2023-01-20T06:31:11.405Z,54.80
2023-01-20T06:33:45.271Z,54.40
2023-01-20T06:36:18.381Z,54.30
2023-01-20T06:38:53.001Z,53.70
2023-01-20T06:41:27.756Z,54.00
2023-01-20T06:44:01.106Z,53.50
2023-01-20T06:46:34.542Z,53.40
2023-01-20T06:49:08.134Z,53.10
2023-01-20T06:51:41.852Z,52.80
2023-01-20T06:54:15.008Z,52.80
2023-01-20T06:56:49.646Z,52.30
2023-01-20T06:59:22.947Z,52.60
2023-01-20T07:01:56.475Z,52.20
2023-01-20T07:04:29.870Z,52.10
2023-01-20T07:07:03.152Z,51.90
2023-01-20T07:09:36.478Z,52.10
2023-01-20T07:12:11.193Z,51.20
2023-01-20T07:14:44.474Z,51.00
2023-01-20T07:17:17.791Z,50.80
2023-01-20T07:19:51.100Z,50.60
2023-01-20T07:22:24.492Z,50.40
2023-01-20T07:24:57.850Z,50.20
2023-01-20T07:27:32.520Z,50.00
2023-01-20T07:30:06.907Z,49.90
2023-01-20T07:32:40.205Z,49.70
2023-01-20T07:35:14.249Z,49.50
2023-01-20T07:37:47.790Z,49.40
2023-01-20T07:40:21.371Z,49.20
2023-01-20T07:42:56.086Z,49.10
2023-01-20T07:45:29.419Z,48.70
2023-01-20T07:48:03.836Z,48.70
2023-01-20T07:50:37.594Z,48.60
2023-01-20T07:53:10.839Z,48.20
2023-01-20T07:55:44.314Z,48.40
2023-01-20T07:58:19.141Z,48.00
2023-01-20T08:00:52.532Z,40.90
2023-01-20T08:03:27.499Z,35.60
2023-01-20T08:06:03.701Z,33.60
2023-01-20T08:08:37.484Z,34.70
2023-01-20T08:11:12.733Z,35.50
2023-01-20T08:13:48.029Z,37.20
2023-01-20T08:16:21.609Z,35.80
2023-01-20T08:18:55.277Z,35.90
2023-01-20T08:21:30.647Z,36.50
2023-01-20T08:24:06.601Z,36.50
2023-01-20T08:26:40.113Z,36.60
2023-01-20T08:29:14.769Z,37.10
2023-01-20T08:31:48.306Z,37.30
2023-01-20T08:34:23.191Z,37.30
2023-01-20T08:36:57.571Z,37.80
2023-01-20T08:39:30.957Z,38.40
2023-01-20T08:42:04.324Z,38.30
2023-01-20T08:44:39.031Z,38.10
2023-01-20T08:47:12.370Z,38.40
2023-01-20T08:49:45.670Z,38.80
2023-01-20T08:52:19.152Z,39.20
2023-01-20T08:54:54.085Z,39.60
2023-01-20T08:57:27.538Z,40.10
2023-01-20T09:00:02.317Z,40.30
2023-01-20T09:02:35.850Z,40.40
2023-01-20T09:05:10.207Z,40.60
2023-01-20T09:07:44.651Z,40.80
2023-01-20T09:10:18.183Z,40.70
2023-01-20T09:12:51.504Z,40.90
2023-01-20T09:15:26.185Z,41.00
2023-01-20T09:17:59.826Z,41.20
2023-01-20T09:20:33.282Z,41.40
2023-01-20T09:23:06.592Z,41.20
2023-01-20T09:25:39.892Z,41.30
2023-01-20T09:28:14.226Z,41.40
2023-01-20T09:30:49.030Z,41.50
2023-01-20T09:33:22.661Z,41.20
2023-01-20T09:35:56.680Z,41.40
2023-01-20T09:38:47.509Z,41.50
2023-01-20T09:41:47.007Z,41.80
2023-01-20T09:44:45.362Z,41.80
2023-01-20T09:47:30.979Z,42.40
2023-01-20T09:50:42.735Z,42.00
2023-01-20T09:53:32.745Z,42.60
2023-01-20T09:56:12.469Z,42.40
2023-01-20T09:58:51.628Z,41.90
2023-01-20T10:01:30.990Z,42.10
2023-01-20T10:04:14.842Z,41.90
2023-01-20T10:06:51.824Z,42.00
2023-01-20T10:09:33.780Z,42.30
2023-01-20T10:12:14.022Z,42.20
2023-01-20T10:14:51.171Z,42.40
2023-01-20T10:17:31.244Z,42.50
2023-01-20T10:20:12.839Z,42.40
2023-01-20T10:22:53.081Z,42.60
2023-01-20T10:25:29.304Z,42.70
2023-01-20T10:28:09.157Z,42.60
2023-01-20T10:30:44.563Z,42.60
2023-01-20T10:33:25.833Z,42.60
2023-01-20T10:36:02.057Z,42.70
2023-01-20T10:38:44.177Z,42.50
2023-01-20T10:41:21.459Z,42.60
2023-01-20T10:43:55.031Z,42.60
2023-01-20T10:46:52.809Z,42.60
2023-01-20T10:49:47.399Z,43.30
2023-01-20T10:52:47.959Z,43.20
2023-01-20T10:55:30.787Z,42.90
2023-01-20T10:58:16.694Z,43.10
2023-01-20T11:00:51.043Z,43.40
2023-01-20T11:03:25.125Z,43.40
2023-01-20T11:05:58.752Z,43.60
2023-01-20T11:08:33.507Z,43.50
2023-01-20T11:11:13.531Z,43.50
2023-01-20T11:13:47.432Z,43.10
2023-01-20T11:16:23.120Z,42.80
2023-01-20T11:19:01.781Z,43.50
2023-01-20T11:21:37.196Z,43.10
2023-01-20T11:24:39.014Z,42.80
2023-01-20T11:27:17.421Z,43.30
2023-01-20T11:29:54.057Z,42.90
2023-01-20T11:32:30.721Z,42.80
2023-01-20T11:35:20.955Z,42.80
2023-01-20T11:37:54.503Z,42.80
2023-01-20T11:40:30.336Z,42.30
2023-01-20T11:43:03.748Z,42.60
2023-01-20T11:45:38.342Z,42.70
2023-01-20T11:48:21.638Z,42.80
2023-01-20T11:50:58.556Z,42.80
2023-01-20T11:53:33.060Z,42.50
2023-01-20T11:56:19.228Z,42.50
2023-01-20T11:58:56.191Z,43.30
2023-01-20T12:01:31.328Z,42.20
2023-01-20T12:04:24.193Z,42.30
2023-01-20T12:07:01.640Z,42.70
2023-01-20T12:09:38.932Z,42.30
2023-01-20T12:12:21.948Z,42.30
2023-01-20T12:15:00.607Z,42.40
2023-01-20T12:17:51.564Z,42.20
2023-01-20T12:20:29.800Z,42.80
2023-01-20T12:23:21.073Z,42.40
2023-01-20T12:25:58.230Z,42.20
2023-01-20T12:28:39.876Z,42.10
2023-01-20T12:31:14.629Z,42.00
2023-01-20T12:33:50.823Z,42.10
2023-01-20T12:39:53.654Z,42.20
2023-01-20T12:42:59.661Z,42.50
2023-01-20T12:45:59.563Z,42.60
2023-01-20T12:48:43.432Z,42.60
2023-01-20T12:51:37.955Z,43.00
2023-01-20T12:54:48.323Z,42.90
2023-01-20T12:57:38.044Z,43.20
2023-01-20T13:00:31.414Z,43.70
2023-01-20T13:03:40.773Z,43.90
2023-01-20T13:06:39.471Z,44.00
2023-01-20T13:09:32.254Z,44.00
2023-01-20T13:12:22.198Z,43.90
2023-01-20T13:15:00.923Z,43.90
2023-01-20T13:17:41.562Z,43.90
2023-01-20T13:20:23.107Z,43.80
2023-01-20T13:22:57.612Z,43.80
2023-01-20T13:25:31.741Z,43.70
2023-01-20T13:28:07.806Z,43.80
2023-01-20T13:30:44.067Z,43.70
2023-01-20T13:33:27.668Z,43.70
2023-01-20T13:36:13.850Z,43.70
2023-01-20T13:38:48.453Z,43.70
2023-01-20T13:41:50.682Z,43.70
2023-01-20T13:44:35.332Z,43.70
2023-01-20T13:47:10.836Z,43.60
2023-01-20T13:49:50.799Z,43.60
2023-01-20T13:53:01.227Z,43.50
2023-01-20T13:55:54.378Z,43.50
2023-01-20T13:58:29.570Z,43.50
2023-01-20T14:01:04.809Z,43.50
2023-01-20T14:03:39.630Z,43.60
2023-01-20T14:06:23.680Z,43.50
2023-01-20T14:08:57.169Z,43.50
2023-01-20T14:11:32.362Z,43.50
2023-01-20T14:14:06.477Z,43.50
2023-01-20T14:16:42.389Z,43.50
2023-01-20T14:19:23.281Z,43.40
2023-01-20T14:21:58.701Z,43.40
2023-01-20T14:24:33.887Z,44.00
2023-01-20T14:27:11.942Z,43.40
2023-01-20T14:29:46.585Z,43.40
2023-01-20T14:32:22.614Z,43.50
2023-01-20T14:34:57.168Z,44.10
2023-01-20T14:37:32.974Z,43.70
2023-01-20T14:40:24.065Z,43.60
2023-01-20T14:43:00.349Z,43.50
2023-01-20T14:45:34.580Z,43.50
2023-01-20T14:48:08.407Z,43.40
2023-01-20T14:50:42.000Z,43.40
2023-01-20T14:53:15.948Z,44.00
2023-01-20T14:56:01.425Z,43.60
2023-01-20T14:58:36.588Z,43.70
2023-01-20T15:01:21.979Z,43.50
2023-01-20T15:03:59.792Z,43.70
2023-01-20T15:06:33.103Z,43.40
2023-01-20T15:09:23.374Z,43.30
2023-01-20T15:12:33.797Z,43.40
2023-01-20T15:15:30.555Z,43.80
2023-01-20T15:18:21.642Z,43.80
2023-01-20T15:21:15.561Z,43.70
2023-01-20T15:23:52.659Z,43.40
2023-01-20T15:26:29.539Z,43.30
2023-01-20T15:29:02.869Z,43.30
2023-01-20T15:31:37.580Z,43.20
2023-01-20T15:34:13.518Z,43.20
2023-01-20T15:36:47.910Z,43.20
2023-01-20T15:39:23.381Z,43.20
2023-01-20T15:41:57.144Z,43.00
2023-01-20T15:44:30.278Z,42.90
2023-01-20T15:47:13.937Z,43.20
2023-01-20T15:49:47.480Z,43.30
2023-01-20T15:52:20.853Z,43.40
2023-01-20T15:54:54.161Z,43.50
2023-01-20T15:57:27.454Z,43.50
2023-01-20T16:00:00.865Z,43.60
2023-01-20T16:02:36.975Z,43.40
2023-01-20T16:05:14.566Z,43.50
2023-01-20T16:07:50.342Z,43.50
2023-01-20T16:10:23.803Z,43.50
2023-01-20T16:12:57.106Z,43.50
2023-01-20T16:15:30.422Z,43.70
2023-01-20T16:18:05.871Z,43.80
2023-01-20T16:20:39.290Z,43.70
2023-01-20T16:23:13.407Z,43.70
2023-01-20T16:25:46.984Z,43.60
2023-01-20T16:28:24.097Z,43.60
2023-01-20T16:30:57.938Z,43.60
2023-01-20T16:33:32.472Z,43.70
2023-01-20T16:36:11.741Z,44.60
2023-01-20T16:38:45.915Z,44.40
2023-01-20T16:41:22.977Z,44.60
2023-01-20T16:43:58.403Z,44.80
2023-01-20T16:46:33.441Z,44.80
2023-01-20T16:49:08.232Z,44.80
2023-01-20T16:51:42.012Z,44.80
2023-01-20T16:54:15.134Z,44.90
2023-01-20T16:56:48.531Z,44.90
2023-01-20T16:59:21.892Z,44.80
2023-01-20T17:01:55.389Z,44.80
2023-01-20T17:04:30.504Z,44.70
2023-01-20T17:07:06.142Z,44.70
2023-01-20T17:09:41.767Z,44.80
2023-01-20T17:12:16.886Z,44.90
2023-01-20T17:14:50.491Z,45.10
2023-01-20T17:17:23.815Z,45.20
2023-01-20T17:19:58.480Z,45.10
2023-01-20T17:22:31.758Z,45.20
2023-01-20T17:25:05.809Z,45.10
2023-01-20T17:27:39.216Z,45.20
2023-01-20T17:30:13.383Z,45.10
2023-01-20T17:32:48.475Z,45.10
2023-01-20T17:35:23.257Z,44.90
2023-01-20T17:37:58.066Z,44.90
2023-01-20T17:40:31.708Z,44.80
2023-01-20T17:43:05.356Z,44.90
2023-01-20T17:45:38.681Z,44.80
2023-01-20T17:48:12.100Z,44.70
2023-01-20T17:50:46.850Z,44.60
2023-01-20T17:53:20.163Z,44.60
2023-01-20T17:56:06.638Z,44.60
2023-01-20T17:58:46.256Z,44.40
2023-01-20T18:01:21.213Z,44.40
2023-01-20T18:03:55.978Z,44.60
2023-01-20T18:06:34.877Z,44.90
2023-01-20T18:09:09.037Z,45.30
2023-01-20T18:11:43.599Z,45.40
2023-01-20T18:14:16.952Z,45.60
2023-01-20T18:16:50.614Z,46.00
2023-01-20T18:19:23.953Z,46.10
2023-01-20T18:22:00.438Z,46.10
2023-01-20T18:24:33.883Z,45.80
2023-01-20T18:27:07.390Z,45.60
2023-01-20T18:29:40.704Z,45.60
2023-01-20T18:32:14.015Z,45.70
2023-01-20T18:34:47.321Z,46.00
2023-01-20T18:37:22.022Z,46.30
2023-01-20T18:39:55.412Z,46.50
2023-01-20T18:42:28.819Z,46.60
2023-01-20T18:45:02.227Z,47.00
2023-01-20T18:47:35.633Z,46.70
2023-01-20T18:50:09.892Z,46.70
2023-01-20T18:52:44.943Z,47.20
2023-01-20T18:55:18.517Z,47.80
2023-01-20T18:57:51.858Z,48.00
2023-01-20T19:00:25.272Z,48.00
2023-01-20T19:02:58.855Z,48.40
2023-01-20T19:05:33.094Z,48.70
2023-01-20T19:08:08.241Z,48.70
2023-01-20T19:10:41.546Z,48.90
2023-01-20T19:13:14.884Z,49.20
2023-01-20T19:15:48.234Z,49.50
2023-01-20T19:18:21.590Z,49.70
2023-01-20T19:20:54.916Z,49.90
2023-01-20T19:23:29.679Z,50.00
2023-01-20T19:26:03.915Z,50.20
2023-01-20T19:28:37.679Z,50.20
2023-01-20T19:31:12.834Z,50.30
2023-01-20T19:33:48.863Z,50.50
2023-01-20T19:36:23.431Z,50.60
2023-01-20T19:38:58.694Z,50.80
2023-01-20T19:41:33.461Z,50.90
2023-01-20T19:44:07.807Z,51.00
2023-01-20T19:46:41.257Z,51.10
2023-01-20T19:49:14.629Z,51.30
2023-01-20T19:51:48.033Z,51.30
2023-01-20T19:54:24.285Z,51.50
2023-01-20T19:56:57.681Z,51.70
2023-01-20T19:59:31.017Z,51.70
2023-01-20T20:02:04.354Z,51.80
2023-01-20T20:04:37.913Z,51.80
2023-01-20T20:07:11.191Z,52.10
2023-01-20T20:09:46.279Z,52.10
2023-01-20T20:12:19.611Z,52.10
2023-01-20T20:14:52.935Z,52.20
2023-01-20T20:17:27.047Z,52.30
2023-01-20T20:20:00.392Z,52.40
2023-01-20T20:22:33.738Z,52.50
2023-01-20T20:25:11.549Z,52.40
2023-01-20T20:27:45.035Z,52.40
2023-01-20T20:30:21.504Z,52.50
2023-01-20T20:32:57.997Z,52.50
2023-01-20T20:35:31.535Z,52.50
2023-01-20T20:38:04.905Z,52.50
2023-01-20T20:40:39.585Z,52.50
2023-01-20T20:43:12.933Z,52.50
2023-01-20T20:45:46.280Z,52.50
2023-01-20T20:48:19.694Z,52.70
2023-01-20T20:50:53.754Z,52.80
2023-01-20T20:53:27.246Z,52.70
2023-01-20T20:56:04.149Z,52.80
2023-01-20T20:58:45.658Z,52.80
2023-01-20T21:01:30.062Z,52.70
2023-01-20T21:04:03.979Z,53.30
2023-01-20T21:06:37.462Z,52.80
2023-01-20T21:09:11.165Z,52.80
2023-01-20T21:11:45.871Z,52.90
2023-01-20T21:14:22.213Z,52.80
2023-01-20T21:16:55.553Z,52.90
2023-01-20T21:19:28.917Z,52.80
2023-01-20T21:22:02.181Z,52.70
2023-01-20T21:24:35.517Z,52.70
2023-01-20T21:27:10.229Z,52.70
2023-01-20T21:29:44.420Z,52.70
2023-01-20T21:32:17.874Z,52.80
2023-01-20T21:34:51.279Z,52.70
2023-01-20T21:37:24.920Z,52.60
2023-01-20T21:39:58.241Z,52.50
2023-01-20T21:42:33.095Z,52.30
2023-01-20T21:45:06.201Z,52.40
2023-01-20T21:47:41.442Z,52.50
2023-01-20T21:50:32.533Z,52.50
2023-01-20T21:53:05.830Z,52.50
2023-01-20T21:55:39.131Z,52.50
2023-01-20T21:58:13.806Z,52.50
2023-01-20T22:00:50.337Z,52.70
2023-01-20T22:03:23.694Z,52.60
2023-01-20T22:05:56.977Z,52.50
2023-01-20T22:08:30.263Z,52.60
2023-01-20T22:11:03.568Z,53.20
2023-01-20T22:13:38.214Z,52.60
2023-01-20T22:16:11.608Z,52.70
2023-01-20T22:18:46.721Z,52.60
2023-01-20T22:21:20.873Z,52.60
2023-01-20T22:23:54.706Z,52.70
2023-01-20T22:26:27.812Z,52.40
2023-01-20T22:29:02.829Z,52.20
2023-01-20T22:31:36.375Z,52.10
2023-01-20T22:34:11.037Z,52.10
2023-01-20T22:36:45.019Z,52.10
2023-01-20T22:39:18.514Z,52.10
2023-01-20T22:41:51.783Z,52.10
2023-01-20T22:44:26.474Z,52.00
2023-01-20T22:46:59.935Z,52.10
2023-01-20T22:49:33.250Z,52.10
2023-01-20T22:52:06.746Z,52.10
2023-01-20T22:54:40.026Z,52.10
2023-01-20T22:57:13.316Z,52.10
2023-01-20T22:59:47.991Z,52.20
2023-01-20T23:02:21.376Z,52.10
2023-01-20T23:04:54.706Z,52.10
2023-01-20T23:07:28.179Z,52.00
2023-01-20T23:10:01.563Z,52.10
2023-01-20T23:12:34.859Z,52.10
2023-01-20T23:15:10.450Z,52.20
2023-01-20T23:17:43.831Z,52.20
2023-01-20T23:20:17.956Z,52.10
2023-01-20T23:22:51.558Z,52.00
2023-01-20T23:25:25.085Z,52.00
2023-01-20T23:27:58.365Z,52.10
2023-01-20T23:30:33.041Z,52.00
2023-01-20T23:33:06.960Z,51.90
2023-01-20T23:35:40.269Z,51.90
2023-01-20T23:38:13.583Z,51.80
2023-01-20T23:40:49.663Z,51.80
2023-01-20T23:43:23.020Z,51.80
2023-01-20T23:45:59.913Z,51.70
2023-01-20T23:48:34.239Z,51.60
2023-01-20T23:51:08.207Z,51.90
2023-01-20T23:53:41.775Z,51.70
2023-01-20T23:56:16.994Z,51.80
2023-01-20T23:58:51.087Z,51.80
